Time;durP1;ratioP1;P1;durP2;ratioP2;P2;SDS_P1;SDS_P2;PMS_P1;PMS_P2;Temp;Humidity;BMP_temperature;BMP_pressure;BME280_temperature;BME280_humidity;BME280_pressure;Samples;Min_cycle;Max_cycle;Signal;HPM_P1;HPM_P2
2021/12/02 00:01:27;;;;;;;4.63;0.70;;;;;;;;;;5032542;28;20065;-85
2021/12/02 00:03:55;;;;;;;4.15;0.70;;;;;;;;;;5034046;28;20025;-82
2021/12/02 00:06:21;;;;;;;4.68;0.65;;;;;;;;;;5029151;28;20495;-86
2021/12/02 00:08:48;;;;;;;5.85;0.50;;;;;;;;;;5048601;28;20110;-81
2021/12/02 00:11:14;;;;;;;4.45;0.65;;;;;;;;;;5045955;28;20098;-83
2021/12/02 00:16:18;;;;;;;2.45;0.55;;;;;;;;;;5051485;28;20025;-81
2021/12/02 00:21:19;;;;;;;5.38;0.80;;;;;;;;;;5051095;28;20510;-80
2021/12/02 00:23:52;;;;;;;4.28;0.70;;;;;;;;;;5033135;28;20037;-81
2021/12/02 00:26:20;;;;;;;2.60;0.35;;;;;;;;;;5024180;28;20025;-81
2021/12/02 00:28:51;;;;;;;5.05;0.50;;;;;;;;;;5030431;28;20036;-81
2021/12/02 00:31:20;;;;;;;2.30;0.32;;;;;;;;;;5038000;28;20061;-81
2021/12/02 00:33:49;;;;;;;3.63;0.63;;;;;;;;;;5032971;28;20025;-83
2021/12/02 00:36:15;;;;;;;2.97;0.47;;;;;;;;;;5034306;28;20078;-86
2021/12/02 00:38:42;;;;;;;5.75;0.60;;;;;;;;;;5029356;28;20025;-83
2021/12/02 00:41:13;;;;;;;3.13;0.65;;;;;;;;;;5033821;28;20025;-80
2021/12/02 00:43:39;;;;;;;2.08;0.50;;;;;;;;;;5031793;28;20029;-86
2021/12/02 00:46:11;;;;;;;3.47;0.60;;;;;;;;;;5051663;28;20029;-82
2021/12/02 00:48:37;;;;;;;6.22;0.50;;;;;;;;;;5051602;28;20168;-83
2021/12/02 00:51:03;;;;;;;3.80;0.65;;;;;;;;;;5052258;28;20024;-80
2021/12/02 00:53:31;;;;;;;2.63;0.50;;;;;;;;;;5032522;28;20100;-80
2021/12/02 00:55:56;;;;;;;2.78;0.50;;;;;;;;;;5050634;28;20029;-85
2021/12/02 00:58:23;;;;;;;2.63;0.55;;;;;;;;;;5024222;28;20052;-85
2021/12/02 01:00:52;;;;;;;4.07;0.63;;;;;;;;;;5024933;28;20029;-84
2021/12/02 01:03:19;;;;;;;3.30;0.50;;;;;;;;;;5048282;28;20361;-81
2021/12/02 01:05:45;;;;;;;3.83;0.57;;;;;;;;;;5033203;28;20029;-84
2021/12/02 01:08:11;;;;;;;4.68;0.70;;;;;;;;;;5051549;28;20086;-85
2021/12/02 01:10:39;;;;;;;2.53;0.65;;;;;;;;;;5034422;28;20076;-83
2021/12/02 01:13:05;;;;;;;2.17;0.60;;;;;;;;;;5033034;28;20025;-81
2021/12/02 01:15:30;;;;;;;3.38;0.52;;;;;;;;;;5050860;28;20036;-82
2021/12/02 01:17:55;;;;;;;1.35;0.50;;;;;;;;;;5031100;28;20036;-83
2021/12/02 01:20:21;;;;;;;2.25;0.63;;;;;;;;;;5033663;28;20441;-81
2021/12/02 01:22:48;;;;;;;2.65;0.40;;;;;;;;;;5051072;28;20044;-84
2021/12/02 01:25:19;;;;;;;2.15;0.38;;;;;;;;;;5036108;28;20561;-82
2021/12/02 01:27:48;;;;;;;6.82;0.80;;;;;;;;;;5038052;28;20392;-81
2021/12/02 01:30:14;;;;;;;1.10;0.40;;;;;;;;;;5055062;28;20104;-81
2021/12/02 01:32:40;;;;;;;2.22;0.60;;;;;;;;;;5037137;28;20109;-86
2021/12/02 01:35:06;;;;;;;1.55;0.45;;;;;;;;;;5037416;28;20135;-85
2021/12/02 01:37:32;;;;;;;1.52;0.40;;;;;;;;;;5037210;28;20419;-85
2021/12/02 01:39:58;;;;;;;1.55;0.40;;;;;;;;;;5052058;28;20043;-83
2021/12/02 01:42:27;;;;;;;3.22;0.57;;;;;;;;;;5054256;28;20480;-84
2021/12/02 01:44:57;;;;;;;3.72;0.57;;;;;;;;;;5035028;28;20025;-81
2021/12/02 01:47:30;;;;;;;3.30;0.60;;;;;;;;;;5052082;28;20032;-81
2021/12/02 01:49:59;;;;;;;3.92;0.82;;;;;;;;;;5033819;28;20599;-81
2021/12/02 01:52:31;;;;;;;4.97;0.60;;;;;;;;;;5032670;28;20461;-86
2021/12/02 01:55:11;;;;;;;5.37;0.57;;;;;;;;;;5036182;28;20032;-82
2021/12/02 01:57:41;;;;;;;2.53;0.47;;;;;;;;;;5034614;28;20769;-83
2021/12/02 02:00:14;;;;;;;3.30;0.65;;;;;;;;;;5052404;28;20108;-83
2021/12/02 02:02:41;;;;;;;4.60;0.50;;;;;;;;;;5032679;28;20033;-85
2021/12/02 02:05:13;;;;;;;6.65;0.52;;;;;;;;;;5036344;28;20029;-83
2021/12/02 02:08:13;;;;;;;2.60;0.50;;;;;;;;;;5038117;28;20029;-86
2021/12/02 02:10:43;;;;;;;3.65;0.68;;;;;;;;;;5029155;28;20040;-81
2021/12/02 02:13:10;;;;;;;3.30;0.73;;;;;;;;;;5041726;28;20408;-82
2021/12/02 02:15:42;;;;;;;2.05;0.60;;;;;;;;;;5037056;28;20033;-80
2021/12/02 02:21:09;;;;;;;5.90;0.80;;;;;;;;;;5054787;28;20024;-83
2021/12/02 02:23:39;;;;;;;6.22;0.60;;;;;;;;;;5045411;28;20025;-85
2021/12/02 02:26:06;;;;;;;2.42;0.60;;;;;;;;;;5054013;28;20060;-83
2021/12/02 02:28:32;;;;;;;3.22;0.70;;;;;;;;;;5042311;28;20025;-85
2021/12/02 02:30:57;;;;;;;6.22;0.70;;;;;;;;;;5035496;28;20063;-83
2021/12/02 02:33:23;;;;;;;4.32;0.80;;;;;;;;;;5037823;28;20021;-80
2021/12/02 02:35:49;;;;;;;3.47;0.60;;;;;;;;;;5036025;28;20488;-83
2021/12/02 02:38:15;;;;;;;5.40;0.88;;;;;;;;;;5037775;28;20111;-81
2021/12/02 02:40:44;;;;;;;5.38;0.82;;;;;;;;;;5034724;28;20071;-86
2021/12/02 02:43:11;;;;;;;3.70;0.73;;;;;;;;;;5032967;28;20056;-86
2021/12/02 02:45:37;;;;;;;2.22;0.55;;;;;;;;;;5035913;28;20089;-81
2021/12/02 02:48:03;;;;;;;3.15;0.70;;;;;;;;;;5052850;28;20029;-82
2021/12/02 02:50:32;;;;;;;4.07;0.68;;;;;;;;;;5041972;28;20048;-86
2021/12/02 02:53:22;;;;;;;5.22;0.70;;;;;;;;;;5052858;28;20048;-81
2021/12/02 02:56:03;;;;;;;4.88;0.80;;;;;;;;;;5031004;28;20028;-86
2021/12/02 03:04:16;;;;;;;4.57;1.55;;;;;;;;;;5049751;28;20030;-81
2021/12/02 03:06:55;;;;;;;5.55;1.15;;;;;;;;;;5050879;28;20029;-80
2021/12/02 03:09:36;;;;;;;5.07;1.20;;;;;;;;;;5035362;28;20040;-82
2021/12/02 03:12:10;;;;;;;4.72;1.02;;;;;;;;;;5028638;28;20041;-86
2021/12/02 03:14:51;;;;;;;6.60;1.10;;;;;;;;;;5048701;28;20024;-80
2021/12/02 03:17:16;;;;;;;3.90;1.20;;;;;;;;;;5033492;28;20120;-80
2021/12/02 03:19:44;;;;;;;5.22;1.02;;;;;;;;;;5035383;28;20047;-86
2021/12/02 03:22:11;;;;;;;3.72;0.77;;;;;;;;;;5039313;28;20021;-81
2021/12/02 03:24:37;;;;;;;5.28;1.00;;;;;;;;;;5033970;28;20553;-83
2021/12/02 03:27:03;;;;;;;2.47;0.50;;;;;;;;;;5034331;28;20116;-83
2021/12/02 03:29:29;;;;;;;4.15;0.50;;;;;;;;;;5034493;28;20028;-85
2021/12/02 03:31:54;;;;;;;5.63;1.27;;;;;;;;;;5046410;28;20472;-82
2021/12/02 03:34:20;;;;;;;3.63;0.60;;;;;;;;;;5035198;28;20033;-86
2021/12/02 03:36:45;;;;;;;2.53;0.60;;;;;;;;;;5033191;28;20035;-84
2021/12/02 03:39:11;;;;;;;3.13;0.40;;;;;;;;;;5036497;28;20040;-83
2021/12/02 03:41:38;;;;;;;2.90;0.50;;;;;;;;;;5051979;28;20025;-82
2021/12/02 03:44:04;;;;;;;5.95;0.50;;;;;;;;;;5049610;28;20075;-84
2021/12/02 03:46:29;;;;;;;3.15;0.70;;;;;;;;;;5034803;28;20028;-86
2021/12/02 03:48:55;;;;;;;4.03;0.50;;;;;;;;;;5034263;28;20387;-81
2021/12/02 03:51:22;;;;;;;2.30;0.32;;;;;;;;;;5034992;28;20029;-81
2021/12/02 03:53:47;;;;;;;2.78;0.40;;;;;;;;;;5045391;28;20025;-81
2021/12/02 03:56:13;;;;;;;4.45;0.60;;;;;;;;;;5052297;28;20430;-85
2021/12/02 03:58:40;;;;;;;3.08;0.40;;;;;;;;;;5034223;28;20031;-84
2021/12/02 04:01:08;;;;;;;1.80;0.40;;;;;;;;;;5036439;28;20046;-84
2021/12/02 04:03:34;;;;;;;3.90;0.40;;;;;;;;;;5034725;28;20033;-80
2021/12/02 04:06:00;;;;;;;2.42;0.55;;;;;;;;;;5049329;28;20583;-86
2021/12/02 04:08:31;;;;;;;2.50;0.38;;;;;;;;;;5049360;28;20028;-82
2021/12/02 04:16:19;;;;;;;2.28;0.80;;;;;;;;;;5051838;28;20029;-80
2021/12/02 04:18:45;;;;;;;1.80;0.50;;;;;;;;;;5052265;28;20058;-86
2021/12/02 04:21:11;;;;;;;2.58;0.55;;;;;;;;;;5034258;28;20033;-80
2021/12/02 04:23:36;;;;;;;1.77;0.50;;;;;;;;;;5034427;28;20060;-81
2021/12/02 04:26:02;;;;;;;4.03;0.50;;;;;;;;;;5029922;28;20086;-81
2021/12/02 04:28:27;;;;;;;3.92;0.50;;;;;;;;;;5033717;28;20029;-86
2021/12/02 04:30:55;;;;;;;3.42;0.38;;;;;;;;;;5033817;28;20029;-82
2021/12/02 04:33:20;;;;;;;3.58;0.50;;;;;;;;;;5048040;28;20033;-82
2021/12/02 04:35:46;;;;;;;4.35;0.60;;;;;;;;;;5032454;28;20143;-81
2021/12/02 04:38:11;;;;;;;2.83;0.40;;;;;;;;;;5031290;28;20035;-81
2021/12/02 04:40:40;;;;;;;3.90;0.63;;;;;;;;;;5031681;28;20032;-81
2021/12/02 04:43:06;;;;;;;2.42;0.47;;;;;;;;;;5050177;28;20021;-86
2021/12/02 04:45:31;;;;;;;5.30;0.52;;;;;;;;;;5049053;28;20055;-83
2021/12/02 04:47:56;;;;;;;1.08;0.30;;;;;;;;;;5035041;28;20029;-80
2021/12/02 04:50:22;;;;;;;1.83;0.32;;;;;;;;;;5052509;28;20037;-83
2021/12/02 04:52:49;;;;;;;1.10;0.35;;;;;;;;;;5033691;28;20021;-82
2021/12/02 04:55:15;;;;;;;2.58;0.40;;;;;;;;;;5055048;28;20048;-86
2021/12/02 04:57:40;;;;;;;1.63;0.32;;;;;;;;;;5037992;28;20060;-81
2021/12/02 05:00:06;;;;;;;1.52;0.38;;;;;;;;;;5037891;28;20031;-87
2021/12/02 05:02:31;;;;;;;3.30;0.60;;;;;;;;;;5055025;28;20033;-82
2021/12/02 05:04:57;;;;;;;2.72;0.73;;;;;;;;;;5055680;28;20024;-85
2021/12/02 05:07:22;;;;;;;2.85;0.50;;;;;;;;;;5036174;28;20020;-86
2021/12/02 05:09:47;;;;;;;2.10;0.52;;;;;;;;;;5037646;28;20521;-81
2021/12/02 05:12:13;;;;;;;4.18;0.45;;;;;;;;;;5017686;28;20056;-84
2021/12/02 05:14:38;;;;;;;1.38;0.30;;;;;;;;;;5036390;28;20030;-85
2021/12/02 05:17:05;;;;;;;2.10;0.65;;;;;;;;;;5054257;28;20048;-84
2021/12/02 05:19:30;;;;;;;1.25;0.40;;;;;;;;;;5035851;28;20412;-87
2021/12/02 05:21:55;;;;;;;1.58;0.57;;;;;;;;;;5035785;28;20032;-85
2021/12/02 05:24:21;;;;;;;3.67;0.80;;;;;;;;;;5031748;28;20041;-81
2021/12/02 05:26:46;;;;;;;3.38;0.90;;;;;;;;;;5055299;28;20040;-81
2021/12/02 05:29:11;;;;;;;2.13;0.55;;;;;;;;;;5050409;28;20100;-86
2021/12/02 05:31:37;;;;;;;2.83;0.63;;;;;;;;;;5046250;28;20083;-81
2021/12/02 05:34:02;;;;;;;1.70;0.60;;;;;;;;;;5034502;28;20049;-82
2021/12/02 05:36:28;;;;;;;0.52;0.25;;;;;;;;;;5037196;28;20036;-82
2021/12/02 05:38:53;;;;;;;1.52;0.40;;;;;;;;;;5038135;28;20021;-84
2021/12/02 05:41:18;;;;;;;2.92;0.75;;;;;;;;;;5034477;28;20477;-82
2021/12/02 05:43:44;;;;;;;1.85;0.65;;;;;;;;;;5051221;28;20082;-87
2021/12/02 05:46:09;;;;;;;5.10;0.50;;;;;;;;;;5033589;28;20064;-82
2021/12/02 05:48:35;;;;;;;1.95;0.40;;;;;;;;;;5032339;28;20021;-82
2021/12/02 05:51:00;;;;;;;3.75;0.70;;;;;;;;;;5035145;28;20503;-81
2021/12/02 05:53:26;;;;;;;2.58;0.60;;;;;;;;;;5038118;28;20032;-81
2021/12/02 05:55:51;;;;;;;2.35;0.95;;;;;;;;;;5029557;28;20121;-82
2021/12/02 05:58:16;;;;;;;3.03;0.70;;;;;;;;;;5038865;28;20028;-83
2021/12/02 06:00:42;;;;;;;4.70;0.80;;;;;;;;;;5039840;28;20035;-86
2021/12/02 06:03:08;;;;;;;2.55;0.60;;;;;;;;;;5035766;28;20025;-83
2021/12/02 06:05:33;;;;;;;2.33;0.65;;;;;;;;;;5033791;28;20021;-83
2021/12/02 06:08:01;;;;;;;2.10;0.70;;;;;;;;;;5035551;28;20028;-83
2021/12/02 06:10:27;;;;;;;1.75;0.60;;;;;;;;;;5035727;28;20082;-84
2021/12/02 06:12:53;;;;;;;2.22;0.63;;;;;;;;;;5051439;28;20028;-82
2021/12/02 06:15:19;;;;;;;2.60;0.88;;;;;;;;;;5036759;28;20582;-82
2021/12/02 06:18:03;;;;;;;1.77;0.70;;;;;;;;;;5036039;28;20033;-84
2021/12/02 06:20:31;;;;;;;2.05;0.60;;;;;;;;;;5034236;28;20029;-81
2021/12/02 06:22:57;;;;;;;2.80;1.02;;;;;;;;;;5035829;28;20510;-84
2021/12/02 06:27:53;;;;;;;1.58;0.68;;;;;;;;;;5054605;28;20029;-82
2021/12/02 06:30:24;;;;;;;2.28;0.75;;;;;;;;;;5036745;28;20112;-82
2021/12/02 06:32:54;;;;;;;3.03;0.60;;;;;;;;;;5032214;28;20027;-87
2021/12/02 06:35:21;;;;;;;2.75;0.68;;;;;;;;;;5044143;28;20030;-81
2021/12/02 06:37:46;;;;;;;3.92;0.98;;;;;;;;;;5033811;28;20033;-81
2021/12/02 06:40:12;;;;;;;2.17;0.80;;;;;;;;;;5036125;28;20058;-81
2021/12/02 06:42:39;;;;;;;3.13;0.95;;;;;;;;;;5035110;28;20086;-83
2021/12/02 06:45:06;;;;;;;2.92;0.68;;;;;;;;;;5036428;28;20078;-84
2021/12/02 06:47:35;;;;;;;3.72;0.63;;;;;;;;;;5034918;28;20059;-84
2021/12/02 06:50:02;;;;;;;2.67;0.60;;;;;;;;;;5031134;28;20033;-84
2021/12/02 06:52:38;;;;;;;1.25;0.50;;;;;;;;;;5035828;28;20024;-84
2021/12/02 06:55:04;;;;;;;2.60;0.65;;;;;;;;;;5051232;28;20025;-87
2021/12/02 06:57:30;;;;;;;3.17;0.68;;;;;;;;;;5033719;28;20147;-81
2021/12/02 06:59:55;;;;;;;2.80;0.70;;;;;;;;;;5035816;28;20507;-82
2021/12/02 07:02:21;;;;;;;3.70;0.77;;;;;;;;;;5033107;28;20033;-83
2021/12/02 07:04:49;;;;;;;1.38;0.55;;;;;;;;;;5031457;28;20024;-84
2021/12/02 07:07:14;;;;;;;2.60;0.80;;;;;;;;;;5034582;28;20032;-82
2021/12/02 07:09:40;;;;;;;1.38;0.80;;;;;;;;;;5033357;28;20063;-84
2021/12/02 07:12:05;;;;;;;3.58;0.80;;;;;;;;;;5034272;28;20045;-90
2021/12/02 07:14:31;;;;;;;5.38;1.50;;;;;;;;;;5053459;28;20025;-90
2021/12/02 07:16:57;;;;;;;6.85;1.60;;;;;;;;;;5035275;28;20086;-82
2021/12/02 07:19:23;;;;;;;4.30;1.73;;;;;;;;;;5034736;28;20095;-82
2021/12/02 07:21:48;;;;;;;4.32;1.33;;;;;;;;;;5035728;28;20051;-82
2021/12/02 07:24:15;;;;;;;4.65;1.30;;;;;;;;;;5027767;28;20022;-82
2021/12/02 07:26:43;;;;;;;3.67;1.30;;;;;;;;;;5053545;28;20029;-89
2021/12/02 07:29:10;;;;;;;4.72;1.40;;;;;;;;;;5031640;28;20123;-82
2021/12/02 07:31:38;;;;;;;3.70;1.45;;;;;;;;;;5033660;28;20024;-83
2021/12/02 07:34:04;;;;;;;4.13;1.40;;;;;;;;;;5050585;28;20017;-81
2021/12/02 07:36:30;;;;;;;5.20;1.10;;;;;;;;;;5034051;28;20025;-83
2021/12/02 07:38:56;;;;;;;4.40;1.20;;;;;;;;;;5048108;28;20028;-84
2021/12/02 07:41:23;;;;;;;2.88;0.93;;;;;;;;;;5040153;28;20032;-82
2021/12/02 07:43:48;;;;;;;2.88;1.10;;;;;;;;;;5035124;28;20075;-81
2021/12/02 07:46:14;;;;;;;2.60;0.90;;;;;;;;;;5037688;28;20016;-83
2021/12/02 07:48:40;;;;;;;4.07;0.90;;;;;;;;;;5034406;28;20029;-84
2021/12/02 07:51:16;;;;;;;2.17;0.80;;;;;;;;;;5035434;28;20032;-80
2021/12/02 07:53:47;;;;;;;2.75;0.80;;;;;;;;;;5034344;28;20036;-82
2021/12/02 07:56:16;;;;;;;4.35;0.90;;;;;;;;;;5051544;28;20055;-91
2021/12/02 07:58:47;;;;;;;4.15;1.10;;;;;;;;;;5034509;28;20111;-83
2021/12/02 08:01:14;;;;;;;4.18;1.00;;;;;;;;;;5022965;28;20035;-81
2021/12/02 08:03:44;;;;;;;4.03;0.80;;;;;;;;;;5036278;28;20400;-83
2021/12/02 08:06:11;;;;;;;4.68;0.90;;;;;;;;;;5042479;28;20027;-82
2021/12/02 08:08:41;;;;;;;3.88;0.80;;;;;;;;;;5039327;28;20058;-88
2021/12/02 08:11:07;;;;;;;5.43;0.70;;;;;;;;;;5035009;28;20608;-89
2021/12/02 08:13:33;;;;;;;2.72;0.60;;;;;;;;;;5040315;28;20476;-83
2021/12/02 08:15:58;;;;;;;2.47;0.60;;;;;;;;;;5035326;28;20025;-89
2021/12/02 08:18:24;;;;;;;4.68;0.95;;;;;;;;;;5018948;28;20032;-88
2021/12/02 08:20:50;;;;;;;4.07;0.70;;;;;;;;;;5029365;28;20021;-83
2021/12/02 08:23:17;;;;;;;5.85;0.80;;;;;;;;;;5049302;28;20022;-83
2021/12/02 08:25:43;;;;;;;3.70;1.00;;;;;;;;;;5035426;28;20032;-89
2021/12/02 08:28:08;;;;;;;3.08;0.98;;;;;;;;;;5051313;28;20028;-82
2021/12/02 08:30:37;;;;;;;5.35;0.90;;;;;;;;;;5042896;28;20091;-83
2021/12/02 08:33:03;;;;;;;4.90;1.10;;;;;;;;;;5037863;28;20108;-88
2021/12/02 08:35:29;;;;;;;4.82;0.80;;;;;;;;;;5050775;28;20467;-82
2021/12/02 08:38:00;;;;;;;2.47;1.00;;;;;;;;;;5059003;28;20060;-83
2021/12/02 08:40:31;;;;;;;2.67;1.27;;;;;;;;;;5042103;28;20032;-84
2021/12/02 08:43:00;;;;;;;3.38;0.90;;;;;;;;;;5043310;28;20472;-88
2021/12/02 08:45:26;;;;;;;2.45;0.80;;;;;;;;;;5044003;28;20024;-91
2021/12/02 08:47:56;;;;;;;3.65;1.10;;;;;;;;;;5042607;28;20056;-82
2021/12/02 08:50:22;;;;;;;3.15;1.00;;;;;;;;;;5051402;28;20559;-82
2021/12/02 08:52:50;;;;;;;5.22;0.90;;;;;;;;;;5039514;28;20025;-89
2021/12/02 08:55:17;;;;;;;3.25;0.88;;;;;;;;;;5041620;28;20052;-82
2021/12/02 08:57:43;;;;;;;4.13;0.90;;;;;;;;;;5039249;28;20111;-82
2021/12/02 09:00:12;;;;;;;3.15;0.70;;;;;;;;;;5043613;28;20056;-81
2021/12/02 09:02:38;;;;;;;2.85;0.80;;;;;;;;;;5050186;28;20806;-82
2021/12/02 09:05:05;;;;;;;3.42;0.95;;;;;;;;;;5042641;28;20017;-90
2021/12/02 09:07:31;;;;;;;3.85;0.90;;;;;;;;;;5056642;28;20029;-82
2021/12/02 09:09:56;;;;;;;3.60;1.13;;;;;;;;;;5040855;28;20079;-83
2021/12/02 09:12:23;;;;;;;4.13;1.08;;;;;;;;;;5041154;28;20049;-82
2021/12/02 09:14:49;;;;;;;3.13;0.93;;;;;;;;;;5041661;28;20171;-90
2021/12/02 09:17:14;;;;;;;3.47;0.90;;;;;;;;;;5059141;28;20025;-90
2021/12/02 09:19:40;;;;;;;2.58;1.00;;;;;;;;;;5044538;28;20492;-80
2021/12/02 09:22:05;;;;;;;5.05;1.55;;;;;;;;;;5048125;28;20036;-84
2021/12/02 09:24:31;;;;;;;3.90;1.10;;;;;;;;;;5041261;28;20241;-91
2021/12/02 09:26:56;;;;;;;3.30;1.10;;;;;;;;;;5059477;28;20032;-82
2021/12/02 09:29:22;;;;;;;3.17;1.23;;;;;;;;;;5058873;28;20111;-83
2021/12/02 09:31:49;;;;;;;4.97;1.33;;;;;;;;;;5059111;28;20063;-83
2021/12/02 09:34:15;;;;;;;5.45;1.48;;;;;;;;;;5058358;28;20021;-89
2021/12/02 09:36:41;;;;;;;5.38;1.40;;;;;;;;;;5053558;28;20032;-84
2021/12/02 09:39:11;;;;;;;3.72;1.20;;;;;;;;;;5041006;28;20396;-82
2021/12/02 09:41:37;;;;;;;7.85;1.52;;;;;;;;;;5054764;28;20025;-83
2021/12/02 09:44:03;;;;;;;3.10;1.30;;;;;;;;;;5037298;28;20032;-83
2021/12/02 09:46:29;;;;;;;5.28;1.40;;;;;;;;;;5037925;28;20163;-90
2021/12/02 09:48:56;;;;;;;3.83;1.20;;;;;;;;;;5050678;28;20053;-81
2021/12/02 09:51:25;;;;;;;4.90;1.40;;;;;;;;;;5050432;28;20071;-91
2021/12/02 09:58:48;;;;;;;3.30;1.40;;;;;;;;;;5055943;28;20033;-88
2021/12/02 10:01:17;;;;;;;1.23;0.80;;;;;;;;;;5042607;28;20035;-82
2021/12/02 10:03:45;;;;;;;6.13;0.80;;;;;;;;;;5029787;28;20549;-81
2021/12/02 10:06:19;;;;;;;3.53;0.70;;;;;;;;;;5034988;28;20029;-82
2021/12/02 10:09:11;;;;;;;3.38;0.90;;;;;;;;;;5043706;28;20078;-89
2021/12/02 10:12:02;;;;;;;1.40;0.70;;;;;;;;;;5034051;28;20488;-83
2021/12/02 10:14:33;;;;;;;1.63;0.70;;;;;;;;;;5053277;28;20025;-80
2021/12/02 10:17:19;;;;;;;2.03;0.73;;;;;;;;;;5036915;28;20032;-82
2021/12/02 10:20:40;;;;;;;1.55;0.50;;;;;;;;;;5037112;28;22398;-89
2021/12/02 10:23:25;;;;;;;2.95;0.70;;;;;;;;;;4974882;28;20117;-83
2021/12/02 10:25:58;;;;;;;3.00;0.60;;;;;;;;;;4988436;28;20544;-83
2021/12/02 10:28:25;;;;;;;2.35;0.82;;;;;;;;;;5034603;28;20118;-80
2021/12/02 10:30:54;;;;;;;1.13;0.70;;;;;;;;;;5036759;28;20025;-82
2021/12/02 10:33:32;;;;;;;1.42;0.60;;;;;;;;;;5036966;28;20052;-90
2021/12/02 10:35:58;;;;;;;2.80;0.90;;;;;;;;;;5040117;28;20025;-82
2021/12/02 10:38:34;;;;;;;1.17;0.50;;;;;;;;;;5036900;28;20027;-83
2021/12/02 10:41:03;;;;;;;1.08;0.70;;;;;;;;;;5054805;28;20388;-80
2021/12/02 10:43:28;;;;;;;1.15;0.57;;;;;;;;;;5033300;28;20033;-81
2021/12/02 10:46:12;;;;;;;1.77;0.70;;;;;;;;;;5036655;28;20048;-90
2021/12/02 10:48:47;;;;;;;1.23;0.50;;;;;;;;;;5054110;28;20036;-80
2021/12/02 10:51:36;;;;;;;1.33;0.47;;;;;;;;;;5052532;28;20488;-92
2021/12/02 10:54:07;;;;;;;0.85;0.50;;;;;;;;;;5035759;28;20106;-80
2021/12/02 10:56:35;;;;;;;2.70;0.55;;;;;;;;;;5036081;28;20025;-83
2021/12/02 10:59:28;;;;;;;2.60;1.05;;;;;;;;;;5032269;28;20032;-80
2021/12/02 11:01:57;;;;;;;2.42;0.70;;;;;;;;;;5039061;28;20103;-83
2021/12/02 11:04:22;;;;;;;3.30;0.40;;;;;;;;;;5053681;28;20040;-81
2021/12/02 11:06:50;;;;;;;1.77;0.50;;;;;;;;;;5034250;28;20037;-88
2021/12/02 11:09:30;;;;;;;0.57;0.50;;;;;;;;;;5031563;28;20024;-83
2021/12/02 11:12:10;;;;;;;0.88;0.60;;;;;;;;;;5035194;28;20090;-83
2021/12/02 11:14:40;;;;;;;2.63;0.88;;;;;;;;;;5037679;28;20440;-84
2021/12/02 11:17:10;;;;;;;3.28;0.85;;;;;;;;;;5024410;28;20029;-81
2021/12/02 11:19:35;;;;;;;3.80;0.85;;;;;;;;;;5048359;28;20025;-84
2021/12/02 11:22:10;;;;;;;1.83;0.80;;;;;;;;;;5042509;28;20043;-83
2021/12/02 11:24:37;;;;;;;2.47;0.80;;;;;;;;;;5053194;28;20494;-84
2021/12/02 11:27:11;;;;;;;2.08;0.70;;;;;;;;;;5035373;28;20112;-83
2021/12/02 11:29:56;;;;;;;2.15;0.65;;;;;;;;;;5050165;28;20036;-81
2021/12/02 11:32:29;;;;;;;2.50;0.60;;;;;;;;;;5030654;28;20028;-83
2021/12/02 11:35:28;;;;;;;0.85;0.45;;;;;;;;;;5052441;28;20024;-81
2021/12/02 11:37:59;;;;;;;0.70;0.40;;;;;;;;;;5030225;28;20041;-87
2021/12/02 11:40:36;;;;;;;1.98;0.57;;;;;;;;;;5038758;28;20031;-82
2021/12/02 11:43:02;;;;;;;0.70;0.45;;;;;;;;;;5036771;28;20119;-81
2021/12/02 11:45:30;;;;;;;0.95;0.40;;;;;;;;;;5046464;28;20040;-85
2021/12/02 11:47:55;;;;;;;1.55;0.50;;;;;;;;;;5028104;28;20396;-81
2021/12/02 11:50:24;;;;;;;1.63;0.60;;;;;;;;;;5035604;28;20029;-83
2021/12/02 11:52:50;;;;;;;0.90;0.60;;;;;;;;;;5051268;28;20018;-84
2021/12/02 11:55:27;;;;;;;2.15;0.80;;;;;;;;;;5054608;28;20036;-81
2021/12/02 11:57:54;;;;;;;1.10;0.77;;;;;;;;;;5052494;28;20082;-84
2021/12/02 12:00:22;;;;;;;1.80;0.77;;;;;;;;;;5036170;28;20063;-88
2021/12/02 12:02:54;;;;;;;0.50;0.43;;;;;;;;;;5035682;28;20052;-83
2021/12/02 12:05:23;;;;;;;1.00;0.40;;;;;;;;;;5051086;28;20043;-83
2021/12/02 12:07:49;;;;;;;0.40;0.30;;;;;;;;;;5053572;28;20017;-81
2021/12/02 12:10:39;;;;;;;0.30;0.20;;;;;;;;;;5053441;28;20051;-83
2021/12/02 12:13:20;;;;;;;0.30;0.28;;;;;;;;;;5022674;28;20083;-87
2021/12/02 12:15:54;;;;;;;0.52;0.30;;;;;;;;;;5035747;28;20024;-87
2021/12/02 12:18:26;;;;;;;0.30;0.30;;;;;;;;;;5034205;28;20060;-81
2021/12/02 12:21:11;;;;;;;1.73;0.70;;;;;;;;;;5043539;28;20571;-86
2021/12/02 12:23:45;;;;;;;1.80;0.80;;;;;;;;;;5031289;28;20040;-84
2021/12/02 12:26:24;;;;;;;1.60;0.90;;;;;;;;;;5042132;28;20025;-81
2021/12/02 12:29:05;;;;;;;2.38;1.40;;;;;;;;;;5032916;28;20036;-87
2021/12/02 12:31:39;;;;;;;3.88;1.08;;;;;;;;;;5035553;28;20071;-82
2021/12/02 12:34:30;;;;;;;2.63;1.00;;;;;;;;;;5051634;28;20019;-84
2021/12/02 12:36:58;;;;;;;1.67;1.10;;;;;;;;;;5047998;28;20028;-86
2021/12/02 12:39:29;;;;;;;2.28;1.13;;;;;;;;;;5034895;28;20029;-87
2021/12/02 12:42:13;;;;;;;2.92;1.02;;;;;;;;;;5035119;28;20024;-83
2021/12/02 12:44:51;;;;;;;2.45;1.25;;;;;;;;;;5034402;28;20468;-83
2021/12/02 12:47:18;;;;;;;2.47;1.08;;;;;;;;;;5032340;28;20017;-82
2021/12/02 12:49:45;;;;;;;1.45;0.90;;;;;;;;;;5033604;28;20036;-82
2021/12/02 12:52:16;;;;;;;2.25;0.98;;;;;;;;;;5037502;28;20032;-83
2021/12/02 12:54:41;;;;;;;2.17;1.00;;;;;;;;;;5037596;28;20696;-82
2021/12/02 12:57:08;;;;;;;1.55;1.10;;;;;;;;;;5034663;28;20028;-85
2021/12/02 12:59:58;;;;;;;3.10;1.05;;;;;;;;;;5035250;28;20054;-81
2021/12/02 13:02:25;;;;;;;1.67;1.02;;;;;;;;;;5028527;28;20033;-83
2021/12/02 13:04:54;;;;;;;1.60;1.10;;;;;;;;;;5032119;28;20025;-81
2021/12/02 13:07:20;;;;;;;1.08;0.80;;;;;;;;;;5034855;28;20037;-87
2021/12/02 13:10:11;;;;;;;3.13;1.00;;;;;;;;;;5034860;28;20503;-80
2021/12/02 13:12:37;;;;;;;1.83;1.00;;;;;;;;;;5034905;28;20053;-86
2021/12/02 13:15:05;;;;;;;2.10;0.90;;;;;;;;;;5039791;28;20021;-82
2021/12/02 13:17:43;;;;;;;3.20;1.08;;;;;;;;;;5037721;28;20047;-87
2021/12/02 13:20:32;;;;;;;2.05;1.10;;;;;;;;;;5033384;28;20026;-84
2021/12/02 13:23:12;;;;;;;2.08;0.95;;;;;;;;;;5035158;28;20032;-81
2021/12/02 13:26:04;;;;;;;1.30;0.93;;;;;;;;;;5029497;28;20017;-85
2021/12/02 13:28:33;;;;;;;2.05;0.98;;;;;;;;;;5030775;28;20429;-86
2021/12/02 13:31:01;;;;;;;2.63;1.00;;;;;;;;;;5046989;28;20067;-86
2021/12/02 13:33:44;;;;;;;2.83;1.08;;;;;;;;;;5052984;28;20024;-80
2021/12/02 13:36:12;;;;;;;1.77;1.05;;;;;;;;;;5032779;28;20448;-80
2021/12/02 13:38:39;;;;;;;2.05;1.00;;;;;;;;;;5043687;28;20064;-80
2021/12/02 13:41:18;;;;;;;3.35;1.10;;;;;;;;;;5037112;28;20051;-80
2021/12/02 13:44:23;;;;;;;1.55;1.00;;;;;;;;;;5036518;28;20033;-84
2021/12/02 13:46:59;;;;;;;2.60;1.08;;;;;;;;;;4991702;28;20064;-86
2021/12/02 13:49:33;;;;;;;2.08;1.08;;;;;;;;;;5027321;28;20476;-80
2021/12/02 13:55:09;;;;;;;2.08;1.10;;;;;;;;;;5045587;28;20025;-80
2021/12/02 13:57:37;;;;;;;2.25;1.10;;;;;;;;;;5039371;28;20027;-81
2021/12/02 14:00:24;;;;;;;2.35;1.13;;;;;;;;;;5037814;28;20033;-86
2021/12/02 14:02:58;;;;;;;1.98;1.00;;;;;;;;;;5039425;28;20013;-83
2021/12/02 14:05:26;;;;;;;2.45;1.00;;;;;;;;;;5040513;28;20021;-82
2021/12/02 14:07:56;;;;;;;2.50;1.08;;;;;;;;;;5034468;28;20032;-85
2021/12/02 14:10:24;;;;;;;2.85;1.20;;;;;;;;;;5040653;28;20061;-81
2021/12/02 14:13:02;;;;;;;2.38;1.15;;;;;;;;;;5036910;28;20501;-84
2021/12/02 14:15:32;;;;;;;3.55;1.25;;;;;;;;;;5035452;28;20033;-84
2021/12/02 14:18:03;;;;;;;5.15;1.20;;;;;;;;;;5036917;28;20369;-80
2021/12/02 14:20:40;;;;;;;1.77;0.85;;;;;;;;;;5037442;28;20020;-80
2021/12/02 14:23:11;;;;;;;2.55;1.00;;;;;;;;;;5038567;28;20510;-86
2021/12/02 14:25:39;;;;;;;2.33;1.10;;;;;;;;;;5054688;28;20411;-82
2021/12/02 14:28:26;;;;;;;1.67;1.10;;;;;;;;;;5038231;28;20017;-87
2021/12/02 14:30:54;;;;;;;3.22;1.02;;;;;;;;;;5046676;28;20032;-87
2021/12/02 14:33:23;;;;;;;1.60;1.02;;;;;;;;;;5030974;28;20021;-81
2021/12/02 14:35:50;;;;;;;2.72;1.17;;;;;;;;;;5038159;28;20029;-84
2021/12/02 14:38:32;;;;;;;4.95;1.23;;;;;;;;;;5045486;28;20039;-86
2021/12/02 14:41:06;;;;;;;2.80;1.20;;;;;;;;;;5035773;28;20028;-82
2021/12/02 14:43:32;;;;;;;4.72;1.17;;;;;;;;;;5036346;28;20032;-84
2021/12/02 14:46:27;;;;;;;2.70;0.90;;;;;;;;;;5062995;28;20387;-88
2021/12/02 14:49:09;;;;;;;2.92;1.20;;;;;;;;;;5033411;28;20033;-86
2021/12/02 14:51:59;;;;;;;3.13;1.40;;;;;;;;;;5035104;28;20037;-87
2021/12/02 14:54:31;;;;;;;3.10;1.30;;;;;;;;;;5033135;28;20448;-80
2021/12/02 14:56:58;;;;;;;4.38;1.35;;;;;;;;;;5033478;28;20172;-83
2021/12/02 14:59:23;;;;;;;5.97;1.63;;;;;;;;;;5037064;28;20025;-84
2021/12/02 15:01:59;;;;;;;4.85;1.33;;;;;;;;;;5036250;28;20028;-84
2021/12/02 15:04:29;;;;;;;4.35;1.33;;;;;;;;;;5036598;28;20047;-82
2021/12/02 15:07:28;;;;;;;3.35;1.30;;;;;;;;;;5033125;28;20021;-80
2021/12/02 15:10:15;;;;;;;4.72;1.15;;;;;;;;;;5043317;28;20100;-83
2021/12/02 15:12:42;;;;;;;4.07;1.33;;;;;;;;;;5028152;28;20096;-82
2021/12/02 15:15:20;;;;;;;4.40;1.40;;;;;;;;;;5028004;28;20025;-83
2021/12/02 15:17:52;;;;;;;3.25;1.30;;;;;;;;;;5029361;28;20079;-83
2021/12/02 15:20:30;;;;;;;5.25;1.10;;;;;;;;;;5029468;28;20036;-83
2021/12/02 15:23:05;;;;;;;2.50;1.00;;;;;;;;;;5040093;28;20036;-83
2021/12/02 15:25:43;;;;;;;2.67;1.10;;;;;;;;;;5028853;28;20029;-83
2021/12/02 15:28:16;;;;;;;1.95;1.10;;;;;;;;;;5026961;28;20020;-83
2021/12/02 15:31:07;;;;;;;3.05;1.17;;;;;;;;;;5026765;28;20040;-83